sensor_id;sensor_type;location;lat;lon;timestamp;pressure;altitude;pressure_sealevel;temperature;humidity
49178;BME280;35016;55.674;37.468;2023-02-18T00:01:30;99054.09;;;-7.56;69.33
49178;BME280;35016;55.674;37.468;2023-02-18T00:03:58;99057.56;;;-7.56;68.92
49178;BME280;35016;55.674;37.468;2023-02-18T00:06:26;99055.75;;;-7.55;68.38
49178;BME280;35016;55.674;37.468;2023-02-18T00:08:55;99043.56;;;-7.56;68.69
49178;BME280;35016;55.674;37.468;2023-02-18T00:11:24;99045.53;;;-7.58;69.35
49178;BME280;35016;55.674;37.468;2023-02-18T00:13:56;99043.06;;;-7.60;68.91
49178;BME280;35016;55.674;37.468;2023-02-18T00:16:24;99041.41;;;-7.61;68.81
49178;BME280;35016;55.674;37.468;2023-02-18T00:18:59;99035.31;;;-7.61;69.32
49178;BME280;35016;55.674;37.468;2023-02-18T00:21:27;99032.84;;;-7.63;69.26
49178;BME280;35016;55.674;37.468;2023-02-18T00:23:54;99025.13;;;-7.64;68.44
49178;BME280;35016;55.674;37.468;2023-02-18T00:26:21;99034.81;;;-7.65;69.44
49178;BME280;35016;55.674;37.468;2023-02-18T00:28:48;99030.69;;;-7.67;68.71
49178;BME280;35016;55.674;37.468;2023-02-18T00:31:22;99028.22;;;-7.69;68.42
49178;BME280;35016;55.674;37.468;2023-02-18T00:33:50;99025.91;;;-7.72;68.76
49178;BME280;35016;55.674;37.468;2023-02-18T00:36:19;99018.97;;;-7.73;68.41
49178;BME280;35016;55.674;37.468;2023-02-18T00:38:47;99021.09;;;-7.76;69.21
49178;BME280;35016;55.674;37.468;2023-02-18T00:41:16;99017.13;;;-7.81;68.54
49178;BME280;35016;55.674;37.468;2023-02-18T00:43:45;99009.38;;;-7.82;68.49
49178;BME280;35016;55.674;37.468;2023-02-18T00:46:12;99014.94;;;-7.85;68.78
49178;BME280;35016;55.674;37.468;2023-02-18T00:48:39;99015.09;;;-7.87;68.67
49178;BME280;35016;55.674;37.468;2023-02-18T00:51:08;99006.38;;;-7.87;68.91
49178;BME280;35016;55.674;37.468;2023-02-18T00:53:35;99003.06;;;-7.89;68.82
49178;BME280;35016;55.674;37.468;2023-02-18T00:56:02;99001.56;;;-7.92;68.92
49178;BME280;35016;55.674;37.468;2023-02-18T00:58:29;98994.81;;;-7.94;68.46
49178;BME280;35016;55.674;37.468;2023-02-18T01:00:58;98983.47;;;-7.95;68.85
49178;BME280;35016;55.674;37.468;2023-02-18T01:03:26;98975.88;;;-7.98;69.12
49178;BME280;35016;55.674;37.468;2023-02-18T01:05:53;98970.13;;;-8.01;68.46
49178;BME280;35016;55.674;37.468;2023-02-18T01:08:20;98959.59;;;-8.01;68.74
49178;BME280;35016;55.674;37.468;2023-02-18T01:10:51;98972.91;;;-8.03;69.54
49178;BME280;35016;55.674;37.468;2023-02-18T01:13:18;98960.72;;;-8.04;69.31
49178;BME280;35016;55.674;37.468;2023-02-18T01:15:46;98964.50;;;-8.06;68.91
49178;BME280;35016;55.674;37.468;2023-02-18T01:18:13;98947.91;;;-8.07;69.19
49178;BME280;35016;55.674;37.468;2023-02-18T01:20:40;98949.69;;;-8.07;69.52
49178;BME280;35016;55.674;37.468;2023-02-18T01:23:08;98933.91;;;-8.07;69.57
49178;BME280;35016;55.674;37.468;2023-02-18T01:25:36;98940.00;;;-8.07;69.49
49178;BME280;35016;55.674;37.468;2023-02-18T01:28:07;98916.50;;;-8.08;69.69
49178;BME280;35016;55.674;37.468;2023-02-18T01:30:35;98924.38;;;-8.08;69.09
49178;BME280;35016;55.674;37.468;2023-02-18T01:33:03;98916.63;;;-8.10;69.34
49178;BME280;35016;55.674;37.468;2023-02-18T01:35:30;98907.06;;;-8.11;69.54
49178;BME280;35016;55.674;37.468;2023-02-18T01:37:57;98908.22;;;-8.14;69.73
49178;BME280;35016;55.674;37.468;2023-02-18T01:40:25;98908.22;;;-8.14;68.92
49178;BME280;35016;55.674;37.468;2023-02-18T01:42:56;98895.22;;;-8.15;69.70
49178;BME280;35016;55.674;37.468;2023-02-18T01:50:26;98888.78;;;-8.21;68.57
49178;BME280;35016;55.674;37.468;2023-02-18T01:52:53;98884.66;;;-8.23;69.58
49178;BME280;35016;55.674;37.468;2023-02-18T01:55:20;98869.03;;;-8.25;69.41
49178;BME280;35016;55.674;37.468;2023-02-18T01:57:47;98869.56;;;-8.21;68.90
49178;BME280;35016;55.674;37.468;2023-02-18T02:00:16;98872.38;;;-8.15;69.70
49178;BME280;35016;55.674;37.468;2023-02-18T02:02:45;98850.75;;;-8.08;69.67
49178;BME280;35016;55.674;37.468;2023-02-18T02:05:13;98870.16;;;-8.01;69.32
49178;BME280;35016;55.674;37.468;2023-02-18T02:07:40;98866.91;;;-7.95;68.97
49178;BME280;35016;55.674;37.468;2023-02-18T02:10:08;98856.41;;;-7.87;69.48
49178;BME280;35016;55.674;37.468;2023-02-18T02:39:33;98835.44;;;-7.71;69.32
49178;BME280;35016;55.674;37.468;2023-02-18T02:42:08;98839.88;;;-7.71;69.17
49178;BME280;35016;55.674;37.468;2023-02-18T02:44:44;98828.19;;;-7.69;69.63
49178;BME280;35016;55.674;37.468;2023-02-18T02:47:20;98824.75;;;-7.69;69.41
49178;BME280;35016;55.674;37.468;2023-02-18T02:52:25;98818.00;;;-7.64;70.27
49178;BME280;35016;55.674;37.468;2023-02-18T02:54:53;98806.50;;;-7.63;69.36
49178;BME280;35016;55.674;37.468;2023-02-18T03:00:04;98802.38;;;-7.65;69.83
49178;BME280;35016;55.674;37.468;2023-02-18T03:12:55;98794.13;;;-7.78;69.37
49178;BME280;35016;55.674;37.468;2023-02-18T03:17:58;98782.47;;;-7.76;69.82
49178;BME280;35016;55.674;37.468;2023-02-18T03:20:30;98777.53;;;-7.79;69.46
49178;BME280;35016;55.674;37.468;2023-02-18T03:23:00;98777.97;;;-7.84;69.93
49178;BME280;35016;55.674;37.468;2023-02-18T03:25:29;98764.00;;;-7.84;69.89
49178;BME280;35016;55.674;37.468;2023-02-18T03:28:01;98765.47;;;-7.82;69.61
49178;BME280;35016;55.674;37.468;2023-02-18T03:30:32;98761.56;;;-7.77;69.67
49178;BME280;35016;55.674;37.468;2023-02-18T03:33:02;98757.28;;;-7.78;70.40
49178;BME280;35016;55.674;37.468;2023-02-18T03:35:30;98750.38;;;-7.79;70.15
49178;BME280;35016;55.674;37.468;2023-02-18T03:38:09;98744.31;;;-7.80;69.94
49178;BME280;35016;55.674;37.468;2023-02-18T03:40:37;98754.81;;;-7.80;70.30
49178;BME280;35016;55.674;37.468;2023-02-18T03:43:05;98738.06;;;-7.79;70.44
49178;BME280;35016;55.674;37.468;2023-02-18T03:45:32;98738.88;;;-7.78;69.93
49178;BME280;35016;55.674;37.468;2023-02-18T03:47:59;98725.56;;;-7.77;70.22
49178;BME280;35016;55.674;37.468;2023-02-18T03:50:26;98722.94;;;-7.77;70.56
49178;BME280;35016;55.674;37.468;2023-02-18T03:52:53;98725.72;;;-7.78;69.80
49178;BME280;35016;55.674;37.468;2023-02-18T03:55:20;98718.94;;;-7.81;70.00
49178;BME280;35016;55.674;37.468;2023-02-18T03:57:47;98723.38;;;-7.82;69.42
49178;BME280;35016;55.674;37.468;2023-02-18T04:00:13;98715.34;;;-7.80;69.52
49178;BME280;35016;55.674;37.468;2023-02-18T04:02:41;98715.50;;;-7.82;69.51
49178;BME280;35016;55.674;37.468;2023-02-18T04:05:11;98707.09;;;-7.85;70.48
49178;BME280;35016;55.674;37.468;2023-02-18T04:07:38;98700.03;;;-7.85;69.91
49178;BME280;35016;55.674;37.468;2023-02-18T04:10:05;98693.13;;;-7.86;69.60
49178;BME280;35016;55.674;37.468;2023-02-18T04:12:32;98703.81;;;-7.87;69.49
49178;BME280;35016;55.674;37.468;2023-02-18T04:14:59;98700.53;;;-7.89;69.42
49178;BME280;35016;55.674;37.468;2023-02-18T04:17:28;98684.72;;;-7.89;69.97
49178;BME280;35016;55.674;37.468;2023-02-18T04:19:54;98687.53;;;-7.91;70.60
49178;BME280;35016;55.674;37.468;2023-02-18T04:22:21;98682.28;;;-7.91;69.84
49178;BME280;35016;55.674;37.468;2023-02-18T04:24:48;98679.47;;;-7.89;69.52
49178;BME280;35016;55.674;37.468;2023-02-18T04:27:18;98680.28;;;-7.89;70.30
49178;BME280;35016;55.674;37.468;2023-02-18T04:29:46;98669.44;;;-7.86;69.76
49178;BME280;35016;55.674;37.468;2023-02-18T04:32:13;98662.38;;;-7.85;70.60
49178;BME280;35016;55.674;37.468;2023-02-18T04:34:39;98672.91;;;-7.85;70.00
49178;BME280;35016;55.674;37.468;2023-02-18T04:37:07;98679.63;;;-7.83;69.81
49178;BME280;35016;55.674;37.468;2023-02-18T04:39:33;98663.56;;;-7.79;69.53
49178;BME280;35016;55.674;37.468;2023-02-18T04:42:01;98672.44;;;-7.81;70.62
49178;BME280;35016;55.674;37.468;2023-02-18T04:44:28;98675.72;;;-7.78;70.06
49178;BME280;35016;55.674;37.468;2023-02-18T04:46:55;98671.13;;;-7.76;69.79
49178;BME280;35016;55.674;37.468;2023-02-18T04:49:22;98680.50;;;-7.74;70.02
49178;BME280;35016;55.674;37.468;2023-02-18T04:51:51;98669.63;;;-7.71;70.73
49178;BME280;35016;55.674;37.468;2023-02-18T04:54:19;98657.78;;;-7.67;69.84
49178;BME280;35016;55.674;37.468;2023-02-18T04:56:46;98660.25;;;-7.65;70.76
49178;BME280;35016;55.674;37.468;2023-02-18T04:59:13;98657.47;;;-7.64;70.21
49178;BME280;35016;55.674;37.468;2023-02-18T05:01:40;98656.31;;;-7.61;70.68
49178;BME280;35016;55.674;37.468;2023-02-18T05:04:07;98651.53;;;-7.58;70.61
49178;BME280;35016;55.674;37.468;2023-02-18T05:06:34;98650.22;;;-7.54;69.78
49178;BME280;35016;55.674;37.468;2023-02-18T05:09:01;98640.38;;;-7.52;69.67
49178;BME280;35016;55.674;37.468;2023-02-18T05:11:54;98634.75;;;-7.48;70.42
49178;BME280;35016;55.674;37.468;2023-02-18T05:14:23;98632.31;;;-7.50;70.05
49178;BME280;35016;55.674;37.468;2023-02-18T05:16:50;98632.31;;;-7.50;70.03
49178;BME280;35016;55.674;37.468;2023-02-18T05:19:19;98619.31;;;-7.52;69.62
49178;BME280;35016;55.674;37.468;2023-02-18T05:21:49;98614.03;;;-7.52;69.98
49178;BME280;35016;55.674;37.468;2023-02-18T05:24:19;98611.25;;;-7.50;70.35
49178;BME280;35016;55.674;37.468;2023-02-18T05:26:46;98613.19;;;-7.52;70.04
49178;BME280;35016;55.674;37.468;2023-02-18T05:29:13;98607.28;;;-7.54;70.17
49178;BME280;35016;55.674;37.468;2023-02-18T05:31:41;98606.63;;;-7.56;70.02
49178;BME280;35016;55.674;37.468;2023-02-18T05:34:10;98595.44;;;-7.58;69.51
49178;BME280;35016;55.674;37.468;2023-02-18T05:36:37;98595.91;;;-7.55;70.06
49178;BME280;35016;55.674;37.468;2023-02-18T05:39:04;98603.19;;;-7.48;69.95
49178;BME280;35016;55.674;37.468;2023-02-18T05:41:31;98591.81;;;-7.41;70.17
49178;BME280;35016;55.674;37.468;2023-02-18T05:43:59;98586.19;;;-7.30;69.69
49178;BME280;35016;55.674;37.468;2023-02-18T05:46:44;98570.50;;;-7.23;70.23
49178;BME280;35016;55.674;37.468;2023-02-18T05:49:11;98568.72;;;-7.23;70.36
49178;BME280;35016;55.674;37.468;2023-02-18T05:51:39;98568.72;;;-7.23;70.38
49178;BME280;35016;55.674;37.468;2023-02-18T05:54:08;98575.47;;;-7.20;69.83
49178;BME280;35016;55.674;37.468;2023-02-18T05:56:36;98569.53;;;-7.14;69.63
49178;BME280;35016;55.674;37.468;2023-02-18T05:59:03;98560.28;;;-7.10;70.30
49178;BME280;35016;55.674;37.468;2023-02-18T06:01:33;98560.59;;;-7.05;69.79
49178;BME280;35016;55.674;37.468;2023-02-18T06:04:00;98553.97;;;-7.01;70.09
49178;BME280;35016;55.674;37.468;2023-02-18T06:06:27;98557.91;;;-6.97;69.85
49178;BME280;35016;55.674;37.468;2023-02-18T06:08:55;98559.56;;;-6.96;69.91
49178;BME280;35016;55.674;37.468;2023-02-18T06:11:22;98538.31;;;-6.94;69.97
49178;BME280;35016;55.674;37.468;2023-02-18T06:14:00;98532.72;;;-6.91;69.90
49178;BME280;35016;55.674;37.468;2023-02-18T06:16:28;98532.53;;;-6.90;69.98
49178;BME280;35016;55.674;37.468;2023-02-18T06:18:58;98525.28;;;-6.88;69.82
49178;BME280;35016;55.674;37.468;2023-02-18T06:21:25;98528.75;;;-6.87;69.75
49178;BME280;35016;55.674;37.468;2023-02-18T06:23:56;98525.94;;;-6.85;69.93
49178;BME280;35016;55.674;37.468;2023-02-18T06:26:23;98531.84;;;-6.83;69.45
49178;BME280;35016;55.674;37.468;2023-02-18T06:28:51;98519.66;;;-6.84;69.81
49178;BME280;35016;55.674;37.468;2023-02-18T06:31:18;98528.91;;;-6.89;69.84
49178;BME280;35016;55.674;37.468;2023-02-18T06:33:45;98513.09;;;-6.89;69.81
49178;BME280;35016;55.674;37.468;2023-02-18T06:36:14;98509.31;;;-6.86;69.81
49178;BME280;35016;55.674;37.468;2023-02-18T06:38:43;98517.69;;;-6.82;69.74
49178;BME280;35016;55.674;37.468;2023-02-18T06:41:12;98504.31;;;-6.81;69.89
49178;BME280;35016;55.674;37.468;2023-02-18T06:43:39;98509.59;;;-6.81;69.85
49178;BME280;35016;55.674;37.468;2023-02-18T06:46:07;98504.78;;;-6.77;69.89
49178;BME280;35016;55.674;37.468;2023-02-18T06:48:34;98494.38;;;-6.71;69.74
49178;BME280;35016;55.674;37.468;2023-02-18T06:51:03;98486.59;;;-6.64;69.99
49178;BME280;35016;55.674;37.468;2023-02-18T06:53:30;98483.91;;;-6.56;69.46
49178;BME280;35016;55.674;37.468;2023-02-18T06:56:02;98478.56;;;-6.48;69.85
49178;BME280;35016;55.674;37.468;2023-02-18T06:58:29;98475.88;;;-6.40;69.95
49178;BME280;35016;55.674;37.468;2023-02-18T07:00:57;98480.75;;;-6.29;69.70
49178;BME280;35016;55.674;37.468;2023-02-18T07:03:24;98465.47;;;-6.18;69.64
49178;BME280;35016;55.674;37.468;2023-02-18T07:05:52;98457.47;;;-6.10;69.96
49178;BME280;35016;55.674;37.468;2023-02-18T07:08:20;98464.53;;;-6.03;69.75
49178;BME280;35016;55.674;37.468;2023-02-18T07:13:41;98445.50;;;-5.98;69.57
49178;BME280;35016;55.674;37.468;2023-02-18T07:16:11;98449.59;;;-5.96;69.80
49178;BME280;35016;55.674;37.468;2023-02-18T07:18:38;98443.78;;;-5.91;69.69
49178;BME280;35016;55.674;37.468;2023-02-18T07:21:05;98444.84;;;-5.85;69.59
49178;BME280;35016;55.674;37.468;2023-02-18T07:23:33;98438.69;;;-5.78;69.59
49178;BME280;35016;55.674;37.468;2023-02-18T07:26:04;98433.50;;;-5.71;69.59
49178;BME280;35016;55.674;37.468;2023-02-18T07:28:32;98435.41;;;-5.65;69.49
49178;BME280;35016;55.674;37.468;2023-02-18T07:31:00;98421.47;;;-5.59;69.26
49178;BME280;35016;55.674;37.468;2023-02-18T07:33:27;98414.09;;;-5.49;69.50
49178;BME280;35016;55.674;37.468;2023-02-18T07:35:59;98418.06;;;-5.38;69.65
49178;BME280;35016;55.674;37.468;2023-02-18T07:38:26;98414.50;;;-5.31;69.20
49178;BME280;35016;55.674;37.468;2023-02-18T07:40:54;98414.31;;;-5.29;69.19
49178;BME280;35016;55.674;37.468;2023-02-18T07:43:22;98398.28;;;-5.27;69.09
49178;BME280;35016;55.674;37.468;2023-02-18T07:45:51;98399.72;;;-5.25;69.25
49178;BME280;35016;55.674;37.468;2023-02-18T07:48:27;98400.84;;;-5.19;69.12
49178;BME280;35016;55.674;37.468;2023-02-18T07:51:06;98395.63;;;-5.13;69.35
49178;BME280;35016;55.674;37.468;2023-02-18T07:54:30;98387.75;;;-5.06;68.75
49178;BME280;35016;55.674;37.468;2023-02-18T07:57:31;98381.97;;;-4.95;69.17
49178;BME280;35016;55.674;37.468;2023-02-18T08:00:09;98374.81;;;-4.80;69.19
49178;BME280;35016;55.674;37.468;2023-02-18T08:02:42;98374.47;;;-4.70;69.01
49178;BME280;35016;55.674;37.468;2023-02-18T08:05:50;98357.16;;;-4.73;69.20
49178;BME280;35016;55.674;37.468;2023-02-18T08:08:32;98368.25;;;-4.62;68.94
49178;BME280;35016;55.674;37.468;2023-02-18T08:11:04;98371.06;;;-4.64;68.85
49178;BME280;35016;55.674;37.468;2023-02-18T08:18:57;98349.06;;;-4.43;68.86
49178;BME280;35016;55.674;37.468;2023-02-18T08:30:21;98345.59;;;-4.16;69.31
49178;BME280;35016;55.674;37.468;2023-02-18T08:33:08;98338.31;;;-4.07;68.65
49178;BME280;35016;55.674;37.468;2023-02-18T08:35:59;98333.28;;;-4.02;69.33
49178;BME280;35016;55.674;37.468;2023-02-18T08:38:28;98330.06;;;-3.91;68.74
49178;BME280;35016;55.674;37.468;2023-02-18T08:41:04;98324.06;;;-3.71;68.85
49178;BME280;35016;55.674;37.468;2023-02-18T08:43:57;98316.22;;;-3.45;69.49
49178;BME280;35016;55.674;37.468;2023-02-18T08:46:30;98306.69;;;-3.20;68.94
49178;BME280;35016;55.674;37.468;2023-02-18T08:49:30;98298.97;;;-3.08;68.14
49178;BME280;35016;55.674;37.468;2023-02-18T08:52:02;98306.47;;;-3.18;68.43
49178;BME280;35016;55.674;37.468;2023-02-18T08:54:31;98293.00;;;-3.36;68.16
49178;BME280;35016;55.674;37.468;2023-02-18T08:57:01;98292.19;;;-3.44;68.52
49178;BME280;35016;55.674;37.468;2023-02-18T08:59:28;98291.56;;;-3.46;69.33
49178;BME280;35016;55.674;37.468;2023-02-18T09:01:55;98291.13;;;-3.49;69.00
49178;BME280;35016;55.674;37.468;2023-02-18T09:04:22;98286.63;;;-3.49;68.49
49178;BME280;35016;55.674;37.468;2023-02-18T09:06:55;98278.13;;;-3.44;68.75
49178;BME280;35016;55.674;37.468;2023-02-18T09:09:24;98274.44;;;-3.43;69.03
49178;BME280;35016;55.674;37.468;2023-02-18T09:11:59;98281.38;;;-3.35;68.86
49178;BME280;35016;55.674;37.468;2023-02-18T09:14:29;98274.47;;;-3.23;69.38
49178;BME280;35016;55.674;37.468;2023-02-18T09:16:56;98265.53;;;-3.09;68.95
49178;BME280;35016;55.674;37.468;2023-02-18T09:19:33;98251.84;;;-2.93;69.10
49178;BME280;35016;55.674;37.468;2023-02-18T09:22:00;98245.75;;;-2.80;69.00
49178;BME280;35016;55.674;37.468;2023-02-18T09:24:27;98240.63;;;-2.68;68.97
49178;BME280;35016;55.674;37.468;2023-02-18T09:26:55;98235.31;;;-2.48;68.98
49178;BME280;35016;55.674;37.468;2023-02-18T09:29:22;98236.28;;;-2.23;69.21
49178;BME280;35016;55.674;37.468;2023-02-18T09:31:49;98230.06;;;-1.97;68.97
49178;BME280;35016;55.674;37.468;2023-02-18T09:34:16;98216.47;;;-1.69;68.83
49178;BME280;35016;55.674;37.468;2023-02-18T09:36:44;98220.66;;;-1.55;68.77
49178;BME280;35016;55.674;37.468;2023-02-18T09:39:11;98206.50;;;-1.49;68.56
49178;BME280;35016;55.674;37.468;2023-02-18T09:41:41;98212.03;;;-1.44;68.48
49178;BME280;35016;55.674;37.468;2023-02-18T09:44:11;98194.22;;;-1.43;68.50
49178;BME280;35016;55.674;37.468;2023-02-18T09:46:49;98185.16;;;-1.36;68.40
49178;BME280;35016;55.674;37.468;2023-02-18T09:49:19;98181.91;;;-1.38;68.79
49178;BME280;35016;55.674;37.468;2023-02-18T09:51:47;98176.59;;;-1.38;68.58
49178;BME280;35016;55.674;37.468;2023-02-18T09:54:18;98170.47;;;-1.38;68.40
49178;BME280;35016;55.674;37.468;2023-02-18T09:56:53;98163.53;;;-1.46;68.33
49178;BME280;35016;55.674;37.468;2023-02-18T09:59:25;98160.56;;;-1.56;68.23
49178;BME280;35016;55.674;37.468;2023-02-18T10:02:03;98161.81;;;-1.59;68.00
49178;BME280;35016;55.674;37.468;2023-02-18T10:04:45;98152.84;;;-1.64;68.20
49178;BME280;35016;55.674;37.468;2023-02-18T10:07:22;98145.75;;;-1.77;68.35
49178;BME280;35016;55.674;37.468;2023-02-18T10:09:54;98144.81;;;-1.89;68.29
49178;BME280;35016;55.674;37.468;2023-02-18T10:12:23;98148.38;;;-2.02;68.11
49178;BME280;35016;55.674;37.468;2023-02-18T10:14:52;98127.19;;;-2.15;68.53
49178;BME280;35016;55.674;37.468;2023-02-18T10:17:23;98130.50;;;-2.33;68.77
49178;BME280;35016;55.674;37.468;2023-02-18T10:19:53;98129.34;;;-2.43;68.83
49178;BME280;35016;55.674;37.468;2023-02-18T10:22:25;98125.06;;;-2.44;68.78
49178;BME280;35016;55.674;37.468;2023-02-18T10:24:57;98122.44;;;-2.51;69.04
49178;BME280;35016;55.674;37.468;2023-02-18T10:27:32;98116.13;;;-2.57;68.51
49178;BME280;35016;55.674;37.468;2023-02-18T10:32:47;98118.38;;;-2.60;68.56
49178;BME280;35016;55.674;37.468;2023-02-18T10:35:30;98098.16;;;-2.55;68.72
49178;BME280;35016;55.674;37.468;2023-02-18T10:38:24;98088.31;;;-2.47;68.48
49178;BME280;35016;55.674;37.468;2023-02-18T10:41:10;98095.41;;;-2.35;68.55
49178;BME280;35016;55.674;37.468;2023-02-18T10:43:49;98088.19;;;-2.21;68.58
49178;BME280;35016;55.674;37.468;2023-02-18T10:46:25;98084.25;;;-2.12;68.70
49178;BME280;35016;55.674;37.468;2023-02-18T10:49:03;98087.66;;;-1.98;67.88
49178;BME280;35016;55.674;37.468;2023-02-18T10:51:34;98092.50;;;-1.89;68.08
49178;BME280;35016;55.674;37.468;2023-02-18T10:54:03;98082.22;;;-1.78;67.80
49178;BME280;35016;55.674;37.468;2023-02-18T10:59:30;98078.53;;;-1.52;67.71
49178;BME280;35016;55.674;37.468;2023-02-18T11:04:51;98075.59;;;-1.19;67.51
49178;BME280;35016;55.674;37.468;2023-02-18T11:07:22;98069.03;;;-1.17;67.11
49178;BME280;35016;55.674;37.468;2023-02-18T11:09:53;98070.28;;;-1.19;67.05
49178;BME280;35016;55.674;37.468;2023-02-18T11:12:25;98072.31;;;-1.15;67.12
49178;BME280;35016;55.674;37.468;2023-02-18T11:17:37;98042.50;;;-1.23;67.04
49178;BME280;35016;55.674;37.468;2023-02-18T11:22:43;98035.25;;;-1.60;67.24
49178;BME280;35016;55.674;37.468;2023-02-18T11:25:23;98031.63;;;-1.65;67.35
49178;BME280;35016;55.674;37.468;2023-02-18T11:27:59;98032.06;;;-1.68;67.57
49178;BME280;35016;55.674;37.468;2023-02-18T11:30:38;98018.00;;;-1.75;66.28
49178;BME280;35016;55.674;37.468;2023-02-18T11:33:16;98031.34;;;-1.82;66.75
49178;BME280;35016;55.674;37.468;2023-02-18T11:35:51;98016.22;;;-1.81;66.83
49178;BME280;35016;55.674;37.468;2023-02-18T11:38:24;98024.41;;;-1.83;66.71
49178;BME280;35016;55.674;37.468;2023-02-18T11:40:56;98020.44;;;-1.74;66.99
49178;BME280;35016;55.674;37.468;2023-02-18T11:43:26;98017.97;;;-1.69;66.96
49178;BME280;35016;55.674;37.468;2023-02-18T11:46:08;98013.47;;;-1.68;67.26
49178;BME280;35016;55.674;37.468;2023-02-18T11:48:36;98010.59;;;-1.67;67.00
49178;BME280;35016;55.674;37.468;2023-02-18T11:51:03;97997.47;;;-1.62;67.17
49178;BME280;35016;55.674;37.468;2023-02-18T11:53:34;97978.13;;;-1.50;67.28
49178;BME280;35016;55.674;37.468;2023-02-18T11:56:03;98002.75;;;-1.37;67.52
49178;BME280;35016;55.674;37.468;2023-02-18T11:58:35;97969.28;;;-1.26;67.23
49178;BME280;35016;55.674;37.468;2023-02-18T12:01:12;97978.22;;;-1.20;67.26
49178;BME280;35016;55.674;37.468;2023-02-18T12:03:47;97977.78;;;-1.17;67.25
49178;BME280;35016;55.674;37.468;2023-02-18T12:06:27;97978.59;;;-1.17;67.37
49178;BME280;35016;55.674;37.468;2023-02-18T12:09:05;97956.00;;;-1.26;67.24
49178;BME280;35016;55.674;37.468;2023-02-18T12:11:39;97962.44;;;-1.34;67.33
49178;BME280;35016;55.674;37.468;2023-02-18T12:14:15;97968.28;;;-1.43;67.28
49178;BME280;35016;55.674;37.468;2023-02-18T12:27:30;97960.34;;;-1.68;67.40
49178;BME280;35016;55.674;37.468;2023-02-18T12:43:41;97935.63;;;-1.94;67.80
49178;BME280;35016;55.674;37.468;2023-02-18T12:57:03;97923.69;;;-2.34;67.82
49178;BME280;35016;55.674;37.468;2023-02-18T12:59:39;97927.63;;;-2.43;67.93
49178;BME280;35016;55.674;37.468;2023-02-18T13:10:35;97918.00;;;-2.69;67.79
49178;BME280;35016;55.674;37.468;2023-02-18T13:13:19;97919.09;;;-2.77;67.95
49178;BME280;35016;55.674;37.468;2023-02-18T13:19:10;97917.25;;;-2.76;68.49
49178;BME280;35016;55.674;37.468;2023-02-18T13:21:12;97894.81;;;-2.81;67.76
49178;BME280;35016;55.674;37.468;2023-02-18T13:26:16;97912.13;;;-3.09;68.13
49178;BME280;35016;55.674;37.468;2023-02-18T13:28:54;97903.56;;;-3.18;68.29
49178;BME280;35016;55.674;37.468;2023-02-18T13:31:34;97896.69;;;-3.26;67.83
49178;BME280;35016;55.674;37.468;2023-02-18T13:39:12;97897.16;;;-3.49;68.03
49178;BME280;35016;55.674;37.468;2023-02-18T13:47:34;97887.03;;;-3.58;67.62
49178;BME280;35016;55.674;37.468;2023-02-18T13:52:48;97876.44;;;-3.58;68.19
49178;BME280;35016;55.674;37.468;2023-02-18T13:55:22;97873.00;;;-3.65;68.10
49178;BME280;35016;55.674;37.468;2023-02-18T13:57:52;97871.41;;;-3.73;67.96
49178;BME280;35016;55.674;37.468;2023-02-18T14:00:22;97871.59;;;-3.75;67.74
49178;BME280;35016;55.674;37.468;2023-02-18T14:03:00;97867.34;;;-3.76;68.22
49178;BME280;35016;55.674;37.468;2023-02-18T14:05:38;97858.53;;;-3.76;68.17
49178;BME280;35016;55.674;37.468;2023-02-18T14:08:13;97852.03;;;-3.80;67.63
49178;BME280;35016;55.674;37.468;2023-02-18T14:10:41;97849.22;;;-3.85;67.99
49178;BME280;35016;55.674;37.468;2023-02-18T14:16:06;97849.47;;;-4.00;67.54
49178;BME280;35016;55.674;37.468;2023-02-18T14:23:40;97832.38;;;-4.04;68.09
49178;BME280;35016;55.674;37.468;2023-02-18T14:26:09;97834.00;;;-4.03;67.53
49178;BME280;35016;55.674;37.468;2023-02-18T14:29:29;97817.69;;;-4.07;67.90
49178;BME280;35016;55.674;37.468;2023-02-18T14:31:47;97831.34;;;-4.10;68.12
49178;BME280;35016;55.674;37.468;2023-02-18T14:42:05;97822.38;;;-4.09;67.81
49178;BME280;35016;55.674;37.468;2023-02-18T14:44:56;97823.41;;;-4.10;67.72
49178;BME280;35016;55.674;37.468;2023-02-18T14:50:02;97819.34;;;-4.12;67.71
49178;BME280;35016;55.674;37.468;2023-02-18T14:55:00;97829.13;;;-4.13;68.31
49178;BME280;35016;55.674;37.468;2023-02-18T14:57:33;97820.75;;;-4.10;67.75
49178;BME280;35016;55.674;37.468;2023-02-18T15:00:04;97811.78;;;-4.09;68.32
49178;BME280;35016;55.674;37.468;2023-02-18T15:02:34;97812.59;;;-4.08;67.69
49178;BME280;35016;55.674;37.468;2023-02-18T15:05:10;97818.91;;;-4.09;68.16
49178;BME280;35016;55.674;37.468;2023-02-18T15:07:40;97807.94;;;-4.13;67.77
49178;BME280;35016;55.674;37.468;2023-02-18T15:10:14;97800.41;;;-4.16;67.71
49178;BME280;35016;55.674;37.468;2023-02-18T15:12:41;97802.88;;;-4.21;67.76
49178;BME280;35016;55.674;37.468;2023-02-18T15:15:12;97805.13;;;-4.24;67.78
49178;BME280;35016;55.674;37.468;2023-02-18T15:17:44;97801.66;;;-4.25;67.83
49178;BME280;35016;55.674;37.468;2023-02-18T15:20:14;97791.28;;;-4.26;67.89
49178;BME280;35016;55.674;37.468;2023-02-18T15:22:41;97782.16;;;-4.30;68.30
49178;BME280;35016;55.674;37.468;2023-02-18T15:25:12;97778.25;;;-4.34;68.41
49178;BME280;35016;55.674;37.468;2023-02-18T15:27:42;97778.28;;;-4.41;67.93
49178;BME280;35016;55.674;37.468;2023-02-18T15:32:50;97771.00;;;-4.52;68.31
49178;BME280;35016;55.674;37.468;2023-02-18T15:35:20;97759.81;;;-4.54;68.51
49178;BME280;35016;55.674;37.468;2023-02-18T15:37:53;97757.97;;;-4.54;68.20
49178;BME280;35016;55.674;37.468;2023-02-18T15:40:26;97759.81;;;-4.54;67.97
49178;BME280;35016;55.674;37.468;2023-02-18T15:43:24;97767.34;;;-4.58;68.55
49178;BME280;35016;55.674;37.468;2023-02-18T15:46:00;97774.47;;;-4.58;68.53
49178;BME280;35016;55.674;37.468;2023-02-18T15:48:52;97755.13;;;-4.59;68.32
49178;BME280;35016;55.674;37.468;2023-02-18T15:51:29;97754.94;;;-4.57;68.08
49178;BME280;35016;55.674;37.468;2023-02-18T15:54:03;97745.97;;;-4.56;68.44
49178;BME280;35016;55.674;37.468;2023-02-18T15:56:36;97756.34;;;-4.55;68.45
49178;BME280;35016;55.674;37.468;2023-02-18T16:01:41;97738.03;;;-4.50;68.50